»·PEaware :: N4217L KBUR-KLAS

N4217L :: KBUR-KLAS

FLIGHT INFORMATION

Flight Status: Arrived
Operator: Privately registered:
United States
More flights under this callsign
Pilot: James F. (31917)
Aircraft: PIPER PA-44 SEMINOLE
(PA44)
More flights by this aircraft type
Origin: KBUR Bob Hope-Burbank
United States
Destination: KLAS McCarran Intl
United States
More flights between these airports :: More routes between these airports
Route: VNY3 DAG CRESO4
File this flight plan on PilotEdge
Remarks: ILS RWY 26R
Altitude:
(Current/Filed)
13,000ft
Speed:
(Current/Filed)
120kts
Departed: 06-Dec-20 08:43 PM
Arrived: 06-Dec-20 10:29 PM
Distance/Time
Traveled:
6789nm/1:46
Distance/Time
To Go:
Arrived

Flight Plot

Page will automatically refresh every two minutes.

Flight plan parsing failed; only flown route is shown


Map Options




Map Legend


Flown Route
Filed Route
Departure Airport
Arrival Airport
Navaid (VOR, NDB)
Fix

Horizontal Profiles

Position Reports

Time Latitude Longitude Heading Altitude Ground
Speed
06-Dec-20 20:16 34.200097 -118.358754 77 720ft 0kts
06-Dec-20 20:17 34.200097 -118.358754 77 720ft 0kts
06-Dec-20 20:18 34.200097 -118.358754 77 720ft 0kts
06-Dec-20 20:19 34.200097 -118.358754 77 720ft 0kts
06-Dec-20 20:20 34.200097 -118.358754 77 720ft 0kts
06-Dec-20 20:21 34.200097 -118.358754 77 720ft 0kts
06-Dec-20 20:22 34.200097 -118.358754 77 720ft 0kts
06-Dec-20 20:23 34.200097 -118.358754 77 720ft 0kts
06-Dec-20 20:24 34.200097 -118.358754 77 720ft 0kts
06-Dec-20 20:25 34.200097 -118.358754 77 720ft 0kts
06-Dec-20 20:26 34.200097 -118.358754 77 720ft 0kts
06-Dec-20 20:27 34.200097 -118.358754 77 720ft 0kts
06-Dec-20 20:28 34.200097 -118.358754 77 720ft 0kts
06-Dec-20 20:29 34.200097 -118.358754 77 720ft 0kts
06-Dec-20 20:30 34.200097 -118.358754 77 720ft 0kts
06-Dec-20 20:31 34.200097 -118.358754 77 720ft 0kts
06-Dec-20 20:32 34.200097 -118.358754 77 720ft 0kts
06-Dec-20 20:33 34.200097 -118.358754 77 720ft 0kts
06-Dec-20 20:34 34.200097 -118.358754 77 720ft 0kts
06-Dec-20 20:35 34.200097 -118.358754 77 720ft 0kts
06-Dec-20 20:36 34.200613 -118.358408 353 722ft 13kts
06-Dec-20 20:37 34.206055 -118.359866 345 748ft 14kts
06-Dec-20 20:38 34.209873 -118.360921 347 772ft 13kts
06-Dec-20 20:39 34.211550 -118.361187 46 780ft 0kts
06-Dec-20 20:40 34.211550 -118.361187 46 780ft 0kts
06-Dec-20 20:41 34.211762 -118.360953 49 780ft 9kts
06-Dec-20 20:42 34.195447 -118.356176 182 1267ft 111kts
06-Dec-20 20:43 34.169207 -118.379916 227 2772ft 123kts
06-Dec-20 20:44 34.146884 -118.411088 260 4264ft 120kts
06-Dec-20 20:45 34.171052 -118.429276 352 5664ft 112kts
06-Dec-20 20:46 34.201994 -118.433808 354 6864ft 111kts
06-Dec-20 20:47 34.232060 -118.437545 354 7980ft 109kts
06-Dec-20 20:48 34.262128 -118.440946 354 8979ft 106kts
06-Dec-20 20:49 34.292167 -118.444134 354 9711ft 119kts
06-Dec-20 20:50 34.325434 -118.447607 354 10403ft 115kts
06-Dec-20 20:51 34.355655 -118.450544 354 11184ft 102kts
06-Dec-20 20:52 34.381702 -118.452763 354 11972ft 84kts
06-Dec-20 20:53 34.403374 -118.454283 354 12402ft 74kts
06-Dec-20 20:54 34.423580 -118.455590 354 12612ft 76kts
06-Dec-20 20:55 34.449942 -118.457700 353 12992ft 116kts
06-Dec-20 20:56 34.485623 -118.461218 353 13031ft 132kts
06-Dec-20 20:57 34.522342 -118.464894 353 12997ft 132kts
06-Dec-20 20:58 34.559180 -118.468542 353 13016ft 133kts
06-Dec-20 20:59 34.588432 -118.455315 93 12996ft 140kts
06-Dec-20 21:00 34.581542 -118.408442 81 13007ft 142kts
06-Dec-20 21:01 34.589740 -118.361586 74 13003ft 142kts
06-Dec-20 21:02 34.596184 -118.314391 80 12989ft 142kts
06-Dec-20 21:03 34.603045 -118.267212 78 12995ft 142kts
06-Dec-20 21:04 34.609555 -118.219726 79 12998ft 142kts
06-Dec-20 21:05 34.616297 -118.172390 79 12997ft 142kts
06-Dec-20 21:06 34.622875 -118.124864 79 12998ft 142kts
06-Dec-20 21:07 34.629516 -118.077410 79 12997ft 143kts
06-Dec-20 21:08 34.635157 -118.029647 82 12997ft 143kts
06-Dec-20 21:09 34.640398 -117.981929 81 12997ft 143kts
06-Dec-20 21:10 34.645583 -117.934490 82 12997ft 140kts
06-Dec-20 21:11 34.650722 -117.887487 81 12997ft 140kts
06-Dec-20 21:12 34.655832 -117.840376 82 12995ft 141kts
06-Dec-20 21:13 34.660857 -117.793921 82 13126ft 135kts
06-Dec-20 21:14 34.667434 -117.747867 72 13126ft 140kts
06-Dec-20 21:15 34.680250 -117.702959 72 13127ft 140kts
06-Dec-20 21:16 34.691151 -117.657355 71 13126ft 140kts
06-Dec-20 21:17 34.703161 -117.612041 72 13128ft 141kts
06-Dec-20 21:18 34.714616 -117.566431 72 13131ft 141kts
06-Dec-20 21:19 34.726322 -117.521015 72 13126ft 140kts
06-Dec-20 21:21 34.737868 -117.475478 72 13078ft 144kts
06-Dec-20 21:22 34.749727 -117.428967 72 13007ft 141kts
06-Dec-20 21:23 34.761286 -117.383413 72 13009ft 141kts
06-Dec-20 21:24 34.772873 -117.337720 72 13009ft 141kts
06-Dec-20 21:25 34.784385 -117.292214 72 13010ft 141kts
06-Dec-20 21:26 34.795896 -117.246667 72 13010ft 141kts
06-Dec-20 21:27 34.807436 -117.200905 72 13012ft 141kts
06-Dec-20 21:28 34.818721 -117.156084 72 13110ft 140kts
06-Dec-20 21:29 34.830172 -117.110493 72 13111ft 141kts
06-Dec-20 21:30 34.841652 -117.064738 72 13113ft 142kts
06-Dec-20 21:31 34.853152 -117.018828 72 13114ft 141kts
06-Dec-20 21:32 34.864764 -116.972385 72 13003ft 147kts
06-Dec-20 21:33 34.876369 -116.925832 72 12998ft 142kts
06-Dec-20 21:34 34.887836 -116.879797 73 13005ft 142kts
06-Dec-20 21:34 34.897370 -116.841481 72 13004ft 142kts
06-Dec-20 21:36 34.910725 -116.787658 73 13004ft 142kts
06-Dec-20 21:37 34.922120 -116.741674 73 13003ft 142kts
06-Dec-20 21:37 34.931621 -116.703263 73 13003ft 142kts
06-Dec-20 21:39 34.944881 -116.649537 73 13004ft 142kts
06-Dec-20 21:39 34.954356 -116.611091 73 13004ft 142kts
06-Dec-20 21:41 34.970392 -116.558528 59 13004ft 141kts
06-Dec-20 21:41 34.987152 -116.524168 61 13005ft 142kts
06-Dec-20 21:42 35.005201 -116.481457 60 13002ft 141kts
06-Dec-20 21:43 35.024329 -116.439295 61 13003ft 142kts
06-Dec-20 21:44 35.043050 -116.396748 61 13005ft 142kts
06-Dec-20 21:45 35.061901 -116.354279 61 13012ft 142kts
06-Dec-20 21:46 35.080733 -116.311674 61 13014ft 142kts
06-Dec-20 21:47 35.099810 -116.268527 61 12844ft 147kts
06-Dec-20 21:48 35.118564 -116.226019 61 12941ft 140kts
06-Dec-20 21:49 35.137171 -116.183803 61 12942ft 141kts
06-Dec-20 21:50 35.155921 -116.141217 61 12952ft 142kts
06-Dec-20 21:51 35.174581 -116.098753 61 12944ft 142kts
06-Dec-20 21:52 35.193289 -116.056177 61 12942ft 142kts
06-Dec-20 21:53 35.211986 -116.013540 61 12943ft 142kts
06-Dec-20 21:54 35.230684 -115.970845 62 12944ft 142kts
06-Dec-20 21:55 35.249317 -115.928252 62 12946ft 142kts
06-Dec-20 21:56 35.267677 -115.886225 62 13037ft 139kts
06-Dec-20 21:57 35.286183 -115.843828 62 13045ft 142kts
06-Dec-20 21:58 35.304818 -115.801058 62 13052ft 142kts
06-Dec-20 21:59 35.328576 -115.762290 43 13048ft 143kts
06-Dec-20 22:00 35.356374 -115.726436 49 12799ft 152kts
06-Dec-20 22:01 35.385215 -115.687894 47 11995ft 153kts
06-Dec-20 22:03 35.418731 -115.642901 48 11054ft 152kts
06-Dec-20 22:03 35.442357 -115.611493 48 10387ft 148kts
06-Dec-20 22:04 35.469115 -115.575610 49 10041ft 132kts
06-Dec-20 22:05 35.493472 -115.543011 49 10051ft 128kts
06-Dec-20 22:06 35.517366 -115.510982 49 10031ft 127kts
06-Dec-20 22:07 35.542549 -115.476997 49 9835ft 151kts
06-Dec-20 22:08 35.571432 -115.438603 49 9036ft 152kts
06-Dec-20 22:09 35.599495 -115.400653 48 8260ft 146kts
06-Dec-20 22:10 35.625732 -115.365476 48 8036ft 133kts
06-Dec-20 22:11 35.650442 -115.332135 48 8035ft 131kts
06-Dec-20 22:12 35.675100 -115.298924 48 8033ft 131kts
06-Dec-20 22:13 35.699735 -115.265663 48 8039ft 134kts
06-Dec-20 22:14 35.725781 -115.230502 48 8042ft 140kts
06-Dec-20 22:15 35.752389 -115.194507 48 8043ft 144kts
06-Dec-20 22:16 35.782207 -115.161614 22 7889ft 150kts
06-Dec-20 22:17 35.821003 -115.148988 12 7384ft 143kts
06-Dec-20 22:18 35.859349 -115.138903 12 6994ft 134kts
06-Dec-20 22:19 35.897208 -115.128948 12 7004ft 141kts
06-Dec-20 22:20 35.935725 -115.118861 12 7010ft 142kts
06-Dec-20 22:21 35.974400 -115.108702 12 7007ft 142kts
06-Dec-20 22:22 36.012773 -115.098721 10 6893ft 144kts
06-Dec-20 22:23 36.052078 -115.100915 350 5638ft 140kts
06-Dec-20 22:24 36.089633 -115.109771 347 4320ft 137kts
06-Dec-20 22:25 36.124946 -115.115656 302 3423ft 129kts
06-Dec-20 22:26 36.113132 -115.147467 220 2544ft 92kts
06-Dec-20 22:27 36.093898 -115.159681 205 2114ft 43kts
06-Dec-20 22:28 36.089775 -115.164431 352 2141ft 6kts
06-Dec-20 22:29 36.095768 -115.161074 24 2108ft 29kts
06-Dec-20 22:30 36.097766 -115.161695 253 2101ft 0kts
06-Dec-20 22:32 0.000407 0.013975 0 3ft 0kts
06-Dec-20 22:33 0.000407 0.013975 0 3ft 0kts
06-Dec-20 22:34 0.000407 0.013975 0 3ft 0kts
06-Dec-20 22:35 0.000407 0.013975 0 3ft 0kts
06-Dec-20 22:36 0.000407 0.013975 0 3ft 0kts
06-Dec-20 22:37 0.000407 0.013975 0 3ft 0kts
06-Dec-20 22:38 0.000407 0.013975 359 3ft 0kts
06-Dec-20 22:39 0.000408 0.013975 0 3ft 0kts
06-Dec-20 22:40 0.000408 0.013975 0 3ft 0kts
06-Dec-20 22:41 0.000408 0.013975 359 2ft 0kts
06-Dec-20 22:42 0.000408 0.013975 0 15ft 0kts
06-Dec-20 22:43 0.000408 0.013975 0 15ft 0kts

Navigation Log

Ident Type
Flight plan parsing failed, navigation log unavailable